createdAt,value
2022-12-17T00:00:41.850Z,100716.97
2022-12-17T00:03:29.173Z,100716.72
2022-12-17T00:06:14.832Z,100706.28
2022-12-17T00:09:00.471Z,100711.34
2022-12-17T00:11:45.948Z,100716.78
2022-12-17T00:14:39.048Z,100710.56
2022-12-17T00:17:24.486Z,100717.09
2022-12-17T00:20:09.885Z,100723.25
2022-12-17T00:22:55.450Z,100725.16
2022-12-17T00:25:44.351Z,100727.66
2022-12-17T00:28:31.477Z,100731.34
2022-12-17T00:31:17.560Z,100733.97
2022-12-17T00:34:04.720Z,100729.78
2022-12-17T00:36:50.840Z,100727.22
2022-12-17T00:39:37.458Z,100736.91
2022-12-17T00:42:23.180Z,100743.16
2022-12-17T00:45:08.811Z,100747.44
2022-12-17T00:47:55.590Z,100743.81
2022-12-17T00:50:42.349Z,100752.53
2022-12-17T00:53:28.198Z,100753.44
2022-12-17T00:56:13.678Z,100752.16
2022-12-17T00:58:59.331Z,100751.03
2022-12-17T01:01:46.213Z,100766.22
2022-12-17T01:04:32.430Z,100757.38
2022-12-17T01:07:17.853Z,100754.66
2022-12-17T01:10:03.549Z,100763.84
2022-12-17T01:12:49.245Z,100769.22
2022-12-17T01:15:42.409Z,100770.97
2022-12-17T01:18:27.899Z,100772.28
2022-12-17T01:21:16.365Z,100777.50
2022-12-17T01:24:01.900Z,100775.91
2022-12-17T01:26:47.511Z,100798.34
2022-12-17T01:29:32.993Z,100795.38
2022-12-17T01:32:18.381Z,100793.00
2022-12-17T01:35:06.835Z,100795.69
2022-12-17T01:37:52.489Z,100796.72
2022-12-17T01:40:37.966Z,100800.44
2022-12-17T01:43:30.933Z,100803.97
2022-12-17T01:46:17.070Z,100807.69
2022-12-17T01:49:23.226Z,100808.63
2022-12-17T01:52:11.013Z,100805.59
2022-12-17T01:54:58.573Z,100820.97
2022-12-17T01:57:45.530Z,100813.97
2022-12-17T02:00:33.667Z,100821.56
2022-12-17T02:03:20.417Z,100822.03
2022-12-17T02:06:31.319Z,100818.50
2022-12-17T02:09:29.371Z,100815.75
2022-12-17T02:12:30.243Z,100817.16
2022-12-17T02:15:22.835Z,100825.84
2022-12-17T02:18:13.936Z,100831.00
2022-12-17T02:21:05.636Z,100843.34
2022-12-17T02:24:24.394Z,100837.84
2022-12-17T02:27:13.296Z,100845.72
2022-12-17T02:30:07.078Z,100850.13
2022-12-17T02:32:56.134Z,100846.59
2022-12-17T02:35:47.964Z,100846.53
2022-12-17T02:38:38.488Z,100844.66
2022-12-17T02:41:26.401Z,100842.03
2022-12-17T02:44:15.187Z,100844.34
2022-12-17T02:47:01.746Z,100843.31
2022-12-17T02:49:47.535Z,100854.41
2022-12-17T02:52:38.256Z,100850.97
2022-12-17T02:55:25.642Z,100851.03
2022-12-17T02:58:11.428Z,100855.19
2022-12-17T03:00:57.252Z,100859.41
2022-12-17T03:03:47.453Z,100862.78
2022-12-17T03:06:35.837Z,100867.06
2022-12-17T03:09:22.019Z,100867.56
2022-12-17T03:12:08.106Z,100858.88
2022-12-17T03:14:53.636Z,100873.09
2022-12-17T03:17:39.107Z,100868.72
2022-12-17T03:20:25.648Z,100863.47
2022-12-17T03:23:11.580Z,100865.22
2022-12-17T03:25:57.177Z,100874.00
2022-12-17T03:28:42.929Z,100872.13
2022-12-17T03:31:28.543Z,100874.88
2022-12-17T03:34:14.277Z,100871.34
2022-12-17T03:36:59.859Z,100876.59
2022-12-17T03:39:52.930Z,100873.16
2022-12-17T03:42:38.391Z,100878.38
2022-12-17T03:45:24.296Z,100867.41
2022-12-17T03:48:09.823Z,100871.69
2022-12-17T03:50:55.171Z,100868.28
2022-12-17T03:53:40.455Z,100878.94
2022-12-17T03:56:33.497Z,100883.47
2022-12-17T03:59:19.020Z,100886.03
2022-12-17T04:02:04.468Z,100896.38
2022-12-17T04:04:50.009Z,100891.34
2022-12-17T04:07:35.478Z,100893.84
2022-12-17T04:10:21.383Z,100896.84
2022-12-17T04:13:07.983Z,100897.69
2022-12-17T04:15:53.650Z,100888.72
2022-12-17T04:18:39.348Z,100899.28
2022-12-17T04:21:25.392Z,100905.44
2022-12-17T04:24:11.239Z,100900.94
2022-12-17T04:26:57.093Z,100898.19
2022-12-17T04:29:42.716Z,100904.34
2022-12-17T04:32:33.635Z,100905.44
2022-12-17T04:35:20.848Z,100901.84
2022-12-17T04:38:07.436Z,100905.34
2022-12-17T04:40:52.883Z,100910.97
2022-12-17T04:43:38.779Z,100919.50
2022-12-17T04:46:24.725Z,100910.63
2022-12-17T04:49:10.510Z,100917.53
2022-12-17T04:51:56.059Z,100916.75
2022-12-17T04:54:41.447Z,100912.28
2022-12-17T04:57:26.884Z,100910.25
2022-12-17T05:00:12.470Z,100925.06
2022-12-17T05:02:57.979Z,100926.69
2022-12-17T05:05:43.529Z,100924.09
2022-12-17T05:08:41.212Z,100936.38
2022-12-17T05:11:27.645Z,100935.41
2022-12-17T05:14:13.226Z,100941.47
2022-12-17T05:16:59.188Z,100946.72
2022-12-17T05:19:44.634Z,100949.22
2022-12-17T05:22:30.083Z,100951.84
2022-12-17T05:25:16.144Z,100960.41
2022-12-17T05:28:01.678Z,100963.03
2022-12-17T05:30:47.146Z,100968.53
2022-12-17T05:33:32.891Z,100976.25
2022-12-17T05:36:19.668Z,100992.16
2022-12-17T05:39:08.592Z,100997.34
2022-12-17T05:41:54.210Z,101000.72
2022-12-17T05:44:40.120Z,101011.34
2022-12-17T05:47:25.544Z,101018.66
2022-12-17T05:50:11.030Z,101028.06
2022-12-17T05:52:56.392Z,101030.53
2022-12-17T05:55:41.921Z,101034.38
2022-12-17T05:58:29.393Z,101038.88
2022-12-17T06:01:20.372Z,101049.31
2022-12-17T06:04:06.394Z,101044.97
2022-12-17T06:06:52.505Z,101056.41
2022-12-17T06:09:38.414Z,101065.94
2022-12-17T06:12:24.448Z,101073.69
2022-12-17T06:15:10.066Z,101077.81
2022-12-17T06:17:55.378Z,101085.84
2022-12-17T06:20:41.271Z,101091.78
2022-12-17T06:23:30.307Z,101095.16
2022-12-17T06:26:16.827Z,101101.31
2022-12-17T06:29:02.799Z,101114.31
2022-12-17T06:31:48.276Z,101123.94
2022-12-17T06:34:33.850Z,101130.84
2022-12-17T06:37:19.425Z,101139.63
2022-12-17T06:40:04.807Z,101149.25
2022-12-17T06:42:50.436Z,101143.97
2022-12-17T06:45:35.862Z,101144.88
2022-12-17T06:48:23.353Z,101145.59
2022-12-17T06:51:09.298Z,101149.94
2022-12-17T06:53:54.733Z,101160.19
2022-12-17T06:56:40.680Z,101166.38
2022-12-17T06:59:26.142Z,101166.22
2022-12-17T07:02:12.054Z,101185.34
2022-12-17T07:04:57.732Z,101184.13
2022-12-17T07:07:43.128Z,101198.22
2022-12-17T07:10:28.695Z,101201.69
2022-12-17T07:13:14.482Z,101206.72
2022-12-17T07:15:59.950Z,101197.84
2022-12-17T07:18:45.796Z,101201.03
2022-12-17T07:21:31.211Z,101204.81
2022-12-17T07:24:16.932Z,101205.44
2022-12-17T07:27:02.596Z,101204.28
2022-12-17T07:29:47.925Z,101215.28
2022-12-17T07:32:33.291Z,101222.97
2022-12-17T07:35:18.699Z,101223.72
2022-12-17T07:38:04.151Z,101237.47
2022-12-17T07:40:49.696Z,101243.69
2022-12-17T07:43:35.531Z,101247.03
2022-12-17T07:46:21.618Z,101249.53
2022-12-17T07:49:07.487Z,101265.91
2022-12-17T07:51:53.039Z,101265.91
2022-12-17T07:54:38.696Z,101264.97
2022-12-17T07:57:24.351Z,101266.44
2022-12-17T08:00:10.083Z,101264.56
2022-12-17T08:02:55.473Z,101270.00
2022-12-17T08:05:41.149Z,101283.00
2022-12-17T08:08:28.709Z,101282.16
2022-12-17T08:11:14.526Z,101293.91
2022-12-17T08:14:00.172Z,101290.78
2022-12-17T08:16:46.872Z,101297.75
2022-12-17T08:19:32.914Z,101293.47
2022-12-17T08:22:18.375Z,101287.16
2022-12-17T08:25:03.777Z,101288.06
2022-12-17T08:27:49.242Z,101297.31
2022-12-17T08:30:35.133Z,101303.56
2022-12-17T08:33:24.432Z,101307.47
2022-12-17T08:36:14.924Z,101312.72
2022-12-17T08:39:01.309Z,101315.91
2022-12-17T08:41:52.631Z,101319.34
2022-12-17T08:44:39.862Z,101330.50
2022-12-17T08:47:25.284Z,101335.59
2022-12-17T08:50:11.117Z,101348.41
2022-12-17T08:52:56.591Z,101347.97
2022-12-17T08:55:41.983Z,101354.78
2022-12-17T08:58:27.438Z,101355.56
2022-12-17T09:01:16.959Z,101366.38
2022-12-17T09:04:04.842Z,101368.41
2022-12-17T09:06:50.797Z,101375.66
2022-12-17T09:09:36.326Z,101381.59
2022-12-17T09:12:22.289Z,101380.81
2022-12-17T09:15:07.750Z,101386.47
2022-12-17T09:17:53.130Z,101395.81
2022-12-17T09:20:38.621Z,101399.19
2022-12-17T09:23:24.008Z,101399.66
2022-12-17T09:26:15.441Z,101401.47
2022-12-17T09:29:01.717Z,101401.59
2022-12-17T09:31:49.803Z,101409.81
2022-12-17T09:34:35.658Z,101422.56
2022-12-17T09:37:22.117Z,101424.56
2022-12-17T09:40:08.168Z,101425.78
2022-12-17T09:43:00.848Z,101423.19
2022-12-17T09:45:54.785Z,101419.50
2022-12-17T09:49:03.171Z,101414.91
2022-12-17T09:51:49.209Z,101414.09
2022-12-17T09:54:44.009Z,101414.50
2022-12-17T09:57:34.905Z,101418.22
2022-12-17T10:00:35.597Z,101420.75
2022-12-17T10:03:22.539Z,101427.03
2022-12-17T10:06:09.143Z,101430.44
2022-12-17T10:08:54.468Z,101435.50
2022-12-17T10:11:46.770Z,101437.03
2022-12-17T10:14:41.782Z,101442.09
2022-12-17T10:17:35.773Z,101434.53
2022-12-17T10:20:30.305Z,101443.97
2022-12-17T10:23:15.753Z,101452.00
2022-12-17T10:26:12.269Z,101454.28
2022-12-17T10:28:58.385Z,101458.38
2022-12-17T10:31:48.300Z,101460.75
2022-12-17T10:34:36.605Z,101474.53
2022-12-17T10:37:23.470Z,101474.16
2022-12-17T10:40:44.268Z,101473.22
2022-12-17T10:43:44.786Z,101471.72
2022-12-17T10:46:30.900Z,101470.66
2022-12-17T10:49:28.784Z,101477.31
2022-12-17T10:52:34.368Z,101477.47
2022-12-17T10:55:23.028Z,101488.63
2022-12-17T10:58:10.453Z,101487.56
2022-12-17T11:00:58.401Z,101483.88
2022-12-17T11:03:48.421Z,101496.69
2022-12-17T11:06:50.814Z,101494.75
2022-12-17T11:10:00.282Z,101495.97
2022-12-17T11:12:54.721Z,101500.88
2022-12-17T11:15:51.299Z,101502.50
2022-12-17T11:18:43.053Z,101504.22
2022-12-17T11:21:58.441Z,101511.66
2022-12-17T11:24:56.410Z,101514.50
2022-12-17T11:27:47.362Z,101513.59
2022-12-17T11:30:35.447Z,101514.63
2022-12-17T11:33:51.245Z,101521.69
2022-12-17T11:36:49.307Z,101514.66
2022-12-17T11:40:25.414Z,101522.88
2022-12-17T11:43:32.234Z,101517.41
2022-12-17T11:46:26.887Z,101521.25
2022-12-17T11:49:34.437Z,101524.22
2022-12-17T11:52:57.786Z,101528.97
2022-12-17T11:56:15.822Z,101533.03
2022-12-17T11:59:10.190Z,101531.69
2022-12-17T12:02:11.798Z,101534.75
2022-12-17T12:05:21.377Z,101540.34
2022-12-17T12:08:13.887Z,101547.56
2022-12-17T12:11:31.813Z,101542.00
2022-12-17T12:14:38.265Z,101548.91
2022-12-17T12:18:00.273Z,101546.38
2022-12-17T12:20:53.292Z,101552.94
2022-12-17T12:23:57.419Z,101552.94
2022-12-17T12:27:07.575Z,101544.41
2022-12-17T12:30:14.852Z,101551.66
2022-12-17T12:33:33.937Z,101555.47
2022-12-17T12:36:22.926Z,101559.97
2022-12-17T12:39:16.464Z,101559.59
2022-12-17T12:42:15.356Z,101570.59
2022-12-17T12:45:25.903Z,101573.97
2022-12-17T12:48:45.984Z,101574.28
2022-12-17T12:51:58.009Z,101583.44
2022-12-17T12:55:04.168Z,101579.50
2022-12-17T12:57:55.801Z,101577.31
2022-12-17T13:00:44.281Z,101576.44
2022-12-17T13:03:53.021Z,101568.50
2022-12-17T13:06:55.633Z,101571.84
2022-12-17T13:09:34.113Z,101573.44
2022-12-17T13:12:04.921Z,101576.88
2022-12-17T13:14:46.417Z,101584.44
2022-12-17T13:17:16.597Z,101588.16
2022-12-17T13:20:05.240Z,101595.03
2022-12-17T13:22:36.244Z,101601.25
2022-12-17T13:25:29.650Z,101604.84
2022-12-17T13:27:56.773Z,101605.69
2022-12-17T13:30:34.417Z,101612.13
2022-12-17T13:33:13.429Z,101610.25
2022-12-17T13:36:07.032Z,101611.97
2022-12-17T13:38:52.430Z,101612.91
2022-12-17T13:41:22.233Z,101617.56
2022-12-17T13:43:52.361Z,101623.56
2022-12-17T13:46:23.115Z,101633.50
2022-12-17T13:49:05.088Z,101629.38
2022-12-17T13:51:34.215Z,101624.16
2022-12-17T13:54:03.858Z,101632.41
2022-12-17T13:56:35.876Z,101637.63
2022-12-17T13:59:09.165Z,101636.84
2022-12-17T14:01:54.219Z,101640.88
2022-12-17T14:04:28.007Z,101640.53
2022-12-17T14:06:58.961Z,101641.06
2022-12-17T14:09:37.321Z,101644.75
2022-12-17T14:12:24.687Z,101649.59
2022-12-17T14:15:01.180Z,101646.16
2022-12-17T14:17:35.659Z,101651.50
2022-12-17T14:20:07.470Z,101647.75
2022-12-17T14:22:51.092Z,101654.56
2022-12-17T14:25:26.021Z,101652.97
2022-12-17T14:28:01.705Z,101648.47
2022-12-17T14:31:02.444Z,101656.66
2022-12-17T14:33:30.727Z,101657.72
2022-12-17T14:36:00.547Z,101658.66
2022-12-17T14:38:37.947Z,101659.72
2022-12-17T14:41:30.712Z,101664.34
2022-12-17T14:43:59.822Z,101661.53
2022-12-17T14:46:29.179Z,101665.94
2022-12-17T14:49:00.807Z,101677.31
2022-12-17T14:51:40.603Z,101683.19
2022-12-17T14:54:29.831Z,101686.34
2022-12-17T14:56:59.336Z,101696.97
2022-12-17T14:59:39.287Z,101717.25
2022-12-17T15:02:09.436Z,101719.09
2022-12-17T15:04:38.468Z,101717.50
2022-12-17T15:07:09.052Z,101730.09
2022-12-17T15:09:40.506Z,101739.84
2022-12-17T15:12:07.903Z,101746.94
2022-12-17T15:14:35.009Z,101743.66
2022-12-17T15:17:02.235Z,101741.91
2022-12-17T15:19:29.413Z,101749.09
2022-12-17T15:21:56.578Z,101752.94
2022-12-17T15:24:23.672Z,101764.59
2022-12-17T15:26:50.844Z,101761.09
2022-12-17T15:29:17.931Z,101763.78
2022-12-17T15:31:45.107Z,101775.38
2022-12-17T15:34:12.288Z,101770.28
2022-12-17T15:36:39.900Z,101773.78
2022-12-17T15:39:07.266Z,101772.03
2022-12-17T15:41:52.837Z,101771.34
2022-12-17T15:44:19.949Z,101775.94
2022-12-17T15:46:47.101Z,101784.03
2022-12-17T15:49:14.284Z,101787.53
2022-12-17T15:51:41.374Z,101793.56
2022-12-17T15:54:08.475Z,101798.13
2022-12-17T15:56:37.175Z,101802.63
2022-12-17T15:59:04.325Z,101803.69
2022-12-17T16:01:31.511Z,101818.72
2022-12-17T16:03:58.689Z,101809.78
2022-12-17T16:06:26.156Z,101819.44
2022-12-17T16:08:53.285Z,101821.19
2022-12-17T16:11:20.415Z,101824.69
2022-12-17T16:13:47.523Z,101824.69
2022-12-17T16:16:14.734Z,101827.28
2022-12-17T16:18:42.149Z,101839.66
2022-12-17T16:21:09.768Z,101838.94
2022-12-17T16:23:36.900Z,101835.34
2022-12-17T16:26:06.847Z,101842.28
2022-12-17T16:28:36.257Z,101845.91
2022-12-17T16:31:05.535Z,101848.66
2022-12-17T16:33:37.761Z,101844.34
2022-12-17T16:36:06.571Z,101850.34
2022-12-17T16:38:34.161Z,101850.34
2022-12-17T16:41:03.298Z,101857.28
2022-12-17T16:43:33.894Z,101860.56
2022-12-17T16:46:01.844Z,101862.50
2022-12-17T16:48:29.743Z,101869.78
2022-12-17T16:50:56.863Z,101873.31
2022-12-17T16:53:23.956Z,101874.22
2022-12-17T16:55:51.032Z,101877.75
2022-12-17T16:58:18.512Z,101887.31
2022-12-17T17:00:46.408Z,101890.88
2022-12-17T17:03:13.750Z,101892.75
2022-12-17T17:05:42.429Z,101899.91
2022-12-17T17:08:09.512Z,101905.13
2022-12-17T17:10:37.025Z,101902.66
2022-12-17T17:13:04.524Z,101921.31
2022-12-17T17:15:31.642Z,101927.41
2022-12-17T17:18:01.402Z,101924.75
2022-12-17T17:20:32.253Z,101929.31
2022-12-17T17:23:00.031Z,101938.19
2022-12-17T17:25:38.817Z,101936.31
2022-12-17T17:28:14.239Z,101941.66
2022-12-17T17:30:41.330Z,101939.66
2022-12-17T17:33:08.425Z,101936.06
2022-12-17T17:35:35.565Z,101952.78
2022-12-17T17:38:02.638Z,101957.22
2022-12-17T17:40:29.758Z,101962.47
2022-12-17T17:42:56.889Z,101971.06
2022-12-17T17:45:23.958Z,101975.41
2022-12-17T17:47:51.028Z,101968.50
2022-12-17T17:50:18.096Z,101965.97
2022-12-17T17:52:45.222Z,101967.72
2022-12-17T17:55:13.032Z,101979.31
2022-12-17T17:57:40.109Z,101981.94
2022-12-17T18:00:07.826Z,101985.41
2022-12-17T18:02:37.292Z,101990.69
2022-12-17T18:05:04.936Z,101998.72
2022-12-17T18:07:32.014Z,102000.59
2022-12-17T18:09:59.752Z,102017.31
2022-12-17T18:12:45.659Z,102015.41
2022-12-17T18:15:15.440Z,102022.28
2022-12-17T18:17:51.260Z,102018.09
2022-12-17T18:20:18.522Z,102024.25
2022-12-17T18:22:46.326Z,102028.59
2022-12-17T18:25:15.531Z,102033.97
2022-12-17T18:27:43.790Z,102039.19
2022-12-17T18:30:11.590Z,102033.97
2022-12-17T18:32:38.704Z,102041.19
2022-12-17T18:35:06.261Z,102054.41
2022-12-17T18:37:33.405Z,102050.75
2022-12-17T18:40:00.497Z,102057.06
2022-12-17T18:42:45.952Z,102058.88
2022-12-17T18:45:13.078Z,102062.34
2022-12-17T18:47:40.256Z,102069.41
2022-12-17T18:50:07.708Z,102073.06
2022-12-17T18:52:34.857Z,102073.97
2022-12-17T18:55:02.140Z,102084.63
2022-12-17T18:57:29.328Z,102076.16
2022-12-17T18:59:56.809Z,102082.44
2022-12-17T19:02:23.954Z,102071.97
2022-12-17T19:04:51.161Z,102080.72
2022-12-17T19:07:18.281Z,102087.81
2022-12-17T19:09:45.414Z,102087.16
2022-12-17T19:12:12.521Z,102092.22
2022-12-17T19:14:39.651Z,102093.06
2022-12-17T19:17:06.808Z,102101.63
2022-12-17T19:19:33.993Z,102104.31
2022-12-17T19:22:02.008Z,102104.28
2022-12-17T19:24:29.315Z,102116.50
2022-12-17T19:26:56.684Z,102115.66
2022-12-17T19:29:23.836Z,102112.13
2022-12-17T19:31:50.972Z,102118.13
2022-12-17T19:34:18.966Z,102126.09
2022-12-17T19:36:46.729Z,102123.38
2022-12-17T19:39:19.122Z,102128.84
2022-12-17T19:41:46.721Z,102130.56
2022-12-17T19:44:15.533Z,102136.88
2022-12-17T19:46:43.515Z,102142.25
2022-12-17T19:49:12.730Z,102149.19
2022-12-17T19:51:42.781Z,102156.97
2022-12-17T19:54:12.394Z,102158.75
2022-12-17T19:56:39.551Z,102164.13
2022-12-17T19:59:09.527Z,102164.22
2022-12-17T20:01:42.699Z,102170.28
2022-12-17T20:04:13.101Z,102176.56
2022-12-17T20:06:42.843Z,102174.03
2022-12-17T20:09:10.047Z,102178.25
2022-12-17T20:11:37.276Z,102176.66
2022-12-17T20:14:13.265Z,102183.91
2022-12-17T20:16:48.717Z,102180.47
2022-12-17T20:19:20.127Z,102193.47
2022-12-17T20:21:48.116Z,102202.28
2022-12-17T20:24:16.295Z,102199.88
2022-12-17T20:26:44.969Z,102204.25
2022-12-17T20:29:12.454Z,102205.97
2022-12-17T20:31:39.866Z,102214.75
2022-12-17T20:34:09.034Z,102216.59
2022-12-17T20:36:36.341Z,102216.41
2022-12-17T20:39:03.733Z,102224.44
2022-12-17T20:41:32.046Z,102228.72
2022-12-17T20:44:04.468Z,102225.91
2022-12-17T20:46:31.640Z,102229.41
2022-12-17T20:49:00.817Z,102231.28
2022-12-17T20:51:28.753Z,102232.09
2022-12-17T20:53:57.969Z,102238.22
2022-12-17T20:56:28.436Z,102239.19
2022-12-17T20:58:58.881Z,102233.88
2022-12-17T21:01:27.928Z,102246.19
2022-12-17T21:03:56.215Z,102247.09
2022-12-17T21:06:44.958Z,102244.47
2022-12-17T21:09:13.335Z,102256.84
2022-12-17T21:11:41.670Z,102255.13
2022-12-17T21:14:11.618Z,102259.50
2022-12-17T21:16:39.659Z,102263.13
2022-12-17T21:19:09.079Z,102264.03
2022-12-17T21:21:38.285Z,102271.13
2022-12-17T21:24:06.335Z,102268.41
2022-12-17T21:26:36.614Z,102272.88
2022-12-17T21:29:05.873Z,102279.88
2022-12-17T21:31:40.600Z,102279.28
2022-12-17T21:34:12.068Z,102273.16
2022-12-17T21:36:39.481Z,102283.00
2022-12-17T21:39:09.584Z,102290.09
2022-12-17T21:41:43.218Z,102295.69
2022-12-17T21:44:14.530Z,102304.38
2022-12-17T21:46:43.703Z,102305.41
2022-12-17T21:49:13.018Z,102306.31
2022-12-17T21:51:40.387Z,102314.22
2022-12-17T21:54:08.976Z,102322.13
2022-12-17T21:56:37.084Z,102327.38
2022-12-17T21:59:04.468Z,102334.44
2022-12-17T22:01:33.831Z,102333.44
2022-12-17T22:04:04.077Z,102343.16
2022-12-17T22:06:38.855Z,102339.56
2022-12-17T22:09:16.866Z,102344.78
2022-12-17T22:12:14.516Z,102355.19
2022-12-17T22:14:41.757Z,102355.22
2022-12-17T22:17:08.897Z,102357.28
2022-12-17T22:19:36.009Z,102366.03
2022-12-17T22:22:03.114Z,102368.50
2022-12-17T22:24:35.962Z,102368.53
2022-12-17T22:27:03.863Z,102372.13
2022-12-17T22:29:50.517Z,102370.53
2022-12-17T22:32:35.965Z,102371.38
2022-12-17T22:36:13.185Z,102373.94
2022-12-17T22:40:19.842Z,102375.84
2022-12-17T22:44:33.955Z,102382.09
2022-12-17T22:44:42.778Z,102375.97
2022-12-17T22:46:17.033Z,102374.28
2022-12-17T22:48:44.428Z,102380.38
2022-12-17T22:51:13.568Z,102382.16
2022-12-17T22:53:50.213Z,102380.44
2022-12-17T22:56:51.143Z,102382.91
2022-12-17T22:59:05.874Z,102380.44
2022-12-17T23:01:33.525Z,102391.84
2022-12-17T23:04:02.855Z,102397.13
2022-12-17T23:06:30.194Z,102395.53
2022-12-17T23:08:58.953Z,102399.84
2022-12-17T23:11:27.992Z,102399.03
2022-12-17T23:13:55.569Z,102403.34
2022-12-17T23:16:23.343Z,102408.59
2022-12-17T23:18:51.637Z,102407.69
2022-12-17T23:21:22.278Z,102403.44
2022-12-17T23:23:50.477Z,102406.94
2022-12-17T23:26:23.380Z,102404.44
2022-12-17T23:28:58.539Z,102409.00
2022-12-17T23:31:27.990Z,102410.97
2022-12-17T23:33:55.395Z,102417.97
2022-12-17T23:36:24.287Z,102419.09
2022-12-17T23:38:53.156Z,102418.00
2022-12-17T23:41:23.407Z,102432.94
2022-12-17T23:43:50.688Z,102432.06
2022-12-17T23:46:19.247Z,102442.66
2022-12-17T23:48:47.601Z,102444.34
2022-12-17T23:51:17.507Z,102450.66
2022-12-17T23:53:45.147Z,102447.16
2022-12-17T23:56:19.004Z,102457.69
2022-12-17T23:58:46.632Z,102455.94
